createdAt,value
2022-08-06T00:00:06.858Z,16.70
2022-08-06T00:02:35.106Z,16.70
2022-08-06T00:05:05.905Z,16.60
2022-08-06T00:07:45.038Z,16.50
2022-08-06T00:10:29.181Z,16.50
2022-08-06T00:12:57.454Z,16.30
2022-08-06T00:16:06.759Z,16.30
2022-08-06T00:18:12.768Z,16.30
2022-08-06T00:20:42.414Z,16.10
2022-08-06T00:23:12.437Z,16.30
2022-08-06T00:25:52.399Z,16.30
2022-08-06T00:28:30.737Z,16.20
2022-08-06T00:31:01.081Z,16.20
2022-08-06T00:33:44.374Z,16.10
2022-08-06T00:36:25.082Z,16.20
2022-08-06T00:38:52.461Z,16.10
2022-08-06T00:41:19.975Z,16.10
2022-08-06T00:43:49.823Z,16.10
2022-08-06T00:46:16.771Z,16.10
2022-08-06T00:48:54.104Z,16.00
2022-08-06T00:51:22.402Z,16.00
2022-08-06T00:53:49.734Z,15.90
2022-08-06T00:56:26.803Z,15.90
2022-08-06T00:59:00.899Z,15.90
2022-08-06T01:01:32.697Z,15.90
2022-08-06T01:04:12.776Z,15.90
2022-08-06T01:06:55.708Z,15.80
2022-08-06T01:09:25.019Z,15.80
2022-08-06T01:11:52.183Z,15.70
2022-08-06T01:14:38.372Z,15.50
2022-08-06T01:17:19.194Z,15.60
2022-08-06T01:21:56.465Z,15.60
2022-08-06T01:23:49.623Z,15.50
2022-08-06T01:26:54.405Z,15.50
2022-08-06T01:29:36.222Z,15.40
2022-08-06T01:32:06.412Z,15.40
2022-08-06T01:34:39.046Z,15.40
2022-08-06T01:37:23.853Z,15.40
2022-08-06T01:40:02.791Z,15.30
2022-08-06T01:42:36.033Z,15.30
2022-08-06T01:45:05.836Z,15.20
2022-08-06T01:47:53.724Z,13.10
2022-08-06T01:50:28.782Z,14.70
2022-08-06T01:52:59.820Z,15.20
2022-08-06T01:55:56.087Z,15.20
2022-08-06T01:58:27.645Z,15.10
2022-08-06T02:01:01.242Z,15.10
2022-08-06T02:03:50.189Z,12.70
2022-08-06T02:06:33.759Z,15.00
2022-08-06T02:09:16.320Z,15.00
2022-08-06T02:12:21.853Z,14.90
2022-08-06T02:15:00.690Z,14.90
2022-08-06T02:17:53.809Z,14.90
2022-08-06T02:20:37.088Z,14.90
2022-08-06T02:23:08.759Z,14.80
2022-08-06T02:25:41.340Z,14.80
2022-08-06T02:28:09.679Z,14.70
2022-08-06T02:30:42.558Z,14.70
2022-08-06T02:33:10.867Z,14.60
2022-08-06T02:35:43.613Z,14.60
2022-08-06T02:38:28.553Z,14.20
2022-08-06T02:41:05.347Z,14.60
2022-08-06T02:43:37.751Z,14.50
2022-08-06T02:46:48.072Z,14.60
2022-08-06T02:49:25.643Z,14.50
2022-08-06T02:52:17.906Z,14.50
2022-08-06T02:54:56.111Z,14.40
2022-08-06T02:57:37.898Z,14.40
2022-08-06T03:00:15.775Z,14.40
2022-08-06T03:02:46.303Z,14.40
2022-08-06T03:05:19.936Z,15.90
2022-08-06T03:08:10.767Z,14.40
2022-08-06T03:10:38.345Z,14.30
2022-08-06T03:13:10.823Z,14.30
2022-08-06T03:15:59.676Z,14.10
2022-08-06T03:18:28.724Z,14.30
2022-08-06T03:20:57.583Z,14.20
2022-08-06T03:23:27.490Z,14.20
2022-08-06T03:25:56.339Z,14.20
2022-08-06T03:28:25.002Z,14.20
2022-08-06T03:30:55.463Z,14.20
2022-08-06T03:33:41.805Z,14.20
2022-08-06T03:36:11.731Z,14.30
2022-08-06T03:38:54.284Z,13.80
2022-08-06T03:41:21.688Z,14.60
2022-08-06T03:44:03.191Z,14.10
2022-08-06T03:46:45.497Z,14.10
2022-08-06T03:49:21.022Z,14.10
2022-08-06T03:51:55.766Z,14.10
2022-08-06T03:54:30.917Z,14.00
2022-08-06T03:57:08.487Z,14.00
2022-08-06T03:59:57.505Z,14.00
2022-08-06T04:02:37.219Z,14.00
2022-08-06T04:05:21.110Z,14.00
2022-08-06T04:07:54.279Z,14.00
2022-08-06T04:10:34.141Z,14.10
2022-08-06T04:13:38.645Z,14.10
2022-08-06T04:15:53.611Z,14.10
2022-08-06T04:18:28.135Z,14.10
2022-08-06T04:21:19.951Z,14.10
2022-08-06T04:23:45.259Z,14.00
2022-08-06T04:26:15.704Z,14.20
2022-08-06T04:28:53.129Z,14.20
2022-08-06T04:32:03.146Z,14.20
2022-08-06T04:34:18.690Z,14.20
2022-08-06T04:36:46.583Z,14.30
2022-08-06T04:39:25.369Z,14.30
2022-08-06T04:42:05.901Z,14.30
2022-08-06T04:44:33.514Z,14.40
2022-08-06T04:47:01.421Z,14.40
2022-08-06T04:49:58.062Z,14.40
2022-08-06T04:52:45.413Z,14.40
2022-08-06T04:55:23.726Z,14.50
2022-08-06T04:57:57.027Z,14.50
2022-08-06T05:00:59.790Z,14.40
2022-08-06T05:04:05.385Z,14.50
2022-08-06T05:06:19.048Z,14.50
2022-08-06T05:08:52.875Z,14.60
2022-08-06T05:11:29.916Z,14.50
2022-08-06T05:14:02.259Z,14.40
2022-08-06T05:16:30.527Z,14.40
2022-08-06T05:19:19.578Z,14.40
2022-08-06T05:22:05.568Z,14.50
2022-08-06T05:25:01.125Z,14.50
2022-08-06T05:27:53.334Z,14.40
2022-08-06T05:30:13.745Z,14.30
2022-08-06T05:32:53.650Z,14.30
2022-08-06T05:35:23.147Z,14.30
2022-08-06T05:38:07.444Z,14.30
2022-08-06T05:40:53.988Z,14.30
2022-08-06T05:43:25.894Z,14.40
2022-08-06T05:45:57.824Z,14.40
2022-08-06T05:48:29.820Z,14.50
2022-08-06T05:51:08.699Z,14.50
2022-08-06T05:54:03.718Z,14.60
2022-08-06T05:56:39.388Z,14.70
2022-08-06T05:59:29.173Z,14.80
2022-08-06T06:02:00.165Z,15.00
2022-08-06T06:04:33.421Z,15.20
2022-08-06T06:07:04.357Z,15.30
2022-08-06T06:09:56.247Z,15.40
2022-08-06T06:12:21.204Z,15.50
2022-08-06T06:14:49.741Z,15.50
2022-08-06T06:17:25.094Z,15.40
2022-08-06T06:21:03.431Z,15.40
2022-08-06T06:23:34.827Z,15.50
2022-08-06T06:26:33.010Z,15.50
2022-08-06T06:30:02.196Z,15.60
2022-08-06T06:32:31.987Z,15.60
2022-08-06T06:35:13.388Z,15.70
2022-08-06T06:37:54.985Z,15.80
2022-08-06T06:40:47.033Z,15.90
2022-08-06T06:43:57.332Z,16.00
2022-08-06T06:46:44.929Z,16.10
2022-08-06T06:50:00.843Z,16.20
2022-08-06T06:52:34.404Z,16.30
2022-08-06T06:55:18.818Z,16.40
2022-08-06T06:57:52.364Z,16.50
2022-08-06T07:00:43.739Z,16.70
2022-08-06T07:03:09.533Z,16.70
2022-08-06T07:06:05.410Z,16.70
2022-08-06T07:08:31.833Z,16.90
2022-08-06T07:11:06.539Z,17.00
2022-08-06T07:13:48.057Z,17.20
2022-08-06T07:16:34.575Z,17.30
2022-08-06T07:19:05.305Z,17.50
2022-08-06T07:21:32.734Z,17.30
2022-08-06T07:24:05.775Z,18.70
2022-08-06T07:26:38.228Z,17.70
2022-08-06T07:29:48.353Z,17.40
2022-08-06T07:32:05.720Z,17.70
2022-08-06T07:34:34.437Z,17.80
2022-08-06T07:37:02.190Z,18.00
2022-08-06T07:39:39.774Z,18.10
2022-08-06T07:42:13.792Z,18.30
2022-08-06T07:44:55.890Z,18.50
2022-08-06T07:47:41.545Z,18.50
2022-08-06T07:50:18.203Z,18.50
2022-08-06T07:52:52.813Z,18.60
2022-08-06T07:55:25.960Z,18.70
2022-08-06T07:57:59.457Z,19.10
2022-08-06T08:00:28.702Z,19.50
2022-08-06T08:03:19.329Z,19.40
2022-08-06T08:06:23.573Z,19.50
2022-08-06T08:09:10.647Z,19.40
2022-08-06T08:12:33.703Z,19.40
2022-08-06T08:14:28.921Z,19.40
2022-08-06T08:16:55.946Z,19.10
2022-08-06T08:19:34.634Z,18.90
2022-08-06T08:22:18.771Z,18.80
2022-08-06T08:24:54.232Z,19.00
2022-08-06T08:27:23.738Z,19.10
2022-08-06T08:29:56.632Z,19.10
2022-08-06T08:32:24.261Z,19.10
2022-08-06T08:34:53.000Z,17.10
2022-08-06T08:37:20.713Z,19.40
2022-08-06T08:39:47.922Z,19.50
2022-08-06T08:42:32.153Z,19.60
2022-08-06T08:45:02.901Z,19.70
2022-08-06T08:47:46.588Z,19.70
2022-08-06T08:50:20.742Z,19.60
2022-08-06T08:52:51.196Z,19.90
2022-08-06T08:57:02.184Z,20.10
2022-08-06T08:58:37.479Z,20.00
2022-08-06T09:00:56.564Z,20.00
2022-08-06T09:03:23.609Z,20.00
2022-08-06T09:05:53.450Z,19.80
2022-08-06T09:09:01.831Z,19.90
2022-08-06T09:11:11.832Z,20.00
2022-08-06T09:13:50.833Z,20.10
2022-08-06T09:16:19.660Z,20.20
2022-08-06T09:19:03.134Z,20.00
2022-08-06T09:21:33.598Z,20.20
2022-08-06T09:24:04.929Z,20.40
2022-08-06T09:26:54.019Z,20.40
2022-08-06T09:29:31.830Z,20.60
2022-08-06T09:32:05.297Z,20.90
2022-08-06T09:34:46.817Z,21.00
2022-08-06T09:37:28.463Z,21.10
2022-08-06T09:40:17.160Z,21.10
2022-08-06T09:42:48.133Z,21.00
2022-08-06T09:45:17.869Z,20.80
2022-08-06T09:47:58.385Z,20.40
2022-08-06T09:50:44.396Z,20.40
2022-08-06T09:53:15.010Z,20.50
2022-08-06T09:55:42.615Z,20.70
2022-08-06T09:58:10.006Z,20.90
2022-08-06T10:00:39.272Z,21.00
2022-08-06T10:04:06.476Z,19.20
2022-08-06T10:06:10.932Z,21.30
2022-08-06T10:08:43.067Z,21.20
2022-08-06T10:11:09.826Z,21.20
2022-08-06T10:13:44.605Z,21.50
2022-08-06T10:16:21.370Z,21.70
2022-08-06T10:18:57.402Z,22.10
2022-08-06T10:21:33.460Z,22.00
2022-08-06T10:24:10.382Z,21.70
2022-08-06T10:26:37.552Z,21.40
2022-08-06T10:29:06.814Z,21.10
2022-08-06T10:31:36.823Z,20.80
2022-08-06T10:34:23.858Z,20.70
2022-08-06T10:37:10.970Z,20.80
2022-08-06T10:40:08.543Z,20.90
2022-08-06T10:42:37.197Z,21.80
2022-08-06T10:45:13.168Z,21.20
2022-08-06T10:48:58.967Z,21.30
2022-08-06T10:50:39.025Z,21.30
2022-08-06T10:53:59.318Z,21.20
2022-08-06T10:56:08.835Z,21.10
2022-08-06T10:58:37.816Z,21.20
2022-08-06T11:01:09.433Z,21.40
2022-08-06T11:04:04.899Z,21.60
2022-08-06T11:06:53.086Z,21.70
2022-08-06T11:10:02.017Z,22.00
2022-08-06T11:12:51.276Z,22.10
2022-08-06T11:15:22.493Z,22.10
2022-08-06T11:17:53.940Z,22.10
2022-08-06T11:20:32.503Z,22.10
2022-08-06T11:23:00.901Z,22.20
2022-08-06T11:25:47.450Z,22.10
2022-08-06T11:28:16.977Z,22.00
2022-08-06T11:30:47.870Z,22.30
2022-08-06T11:33:18.957Z,22.60
2022-08-06T11:35:53.373Z,22.80
2022-08-06T11:38:51.747Z,22.90
2022-08-06T11:41:55.316Z,23.10
2022-08-06T11:44:17.190Z,23.10
2022-08-06T11:46:48.125Z,23.10
2022-08-06T11:49:46.541Z,23.10
2022-08-06T11:52:42.947Z,23.10
2022-08-06T11:55:22.585Z,23.10
2022-08-06T11:58:19.167Z,23.00
2022-08-06T12:01:03.402Z,23.00
2022-08-06T12:03:52.294Z,23.00
2022-08-06T12:06:26.227Z,22.90
2022-08-06T12:09:09.172Z,22.90
2022-08-06T12:11:38.637Z,22.90
2022-08-06T12:14:32.714Z,22.80
2022-08-06T12:16:54.600Z,22.90
2022-08-06T12:19:26.277Z,22.80
2022-08-06T12:21:57.157Z,22.60
2022-08-06T12:24:45.283Z,22.00
2022-08-06T12:27:16.230Z,22.10
2022-08-06T12:29:44.206Z,21.90
2022-08-06T12:32:24.756Z,21.90
2022-08-06T12:34:58.889Z,22.00
2022-08-06T12:37:41.545Z,22.10
2022-08-06T12:40:37.308Z,22.30
2022-08-06T12:43:14.356Z,22.50
2022-08-06T12:46:06.805Z,22.90
2022-08-06T12:48:30.477Z,23.00
2022-08-06T12:51:11.674Z,23.10
2022-08-06T12:53:58.797Z,23.10
2022-08-06T12:56:30.808Z,23.20
2022-08-06T12:59:02.074Z,23.10
2022-08-06T13:02:08.932Z,22.90
2022-08-06T13:04:19.630Z,22.70
2022-08-06T13:06:48.846Z,22.30
2022-08-06T13:09:18.074Z,22.10
2022-08-06T13:11:51.676Z,22.00
2022-08-06T13:14:20.373Z,21.90
2022-08-06T13:16:57.315Z,21.80
2022-08-06T13:19:32.569Z,21.90
2022-08-06T13:22:08.521Z,22.00
2022-08-06T13:24:36.230Z,22.40
2022-08-06T13:27:06.041Z,22.40
2022-08-06T13:30:34.711Z,22.50
2022-08-06T13:32:33.084Z,22.60
2022-08-06T13:35:11.373Z,22.50
2022-08-06T13:37:55.836Z,22.40
2022-08-06T13:40:57.527Z,22.20
2022-08-06T13:43:53.699Z,22.10
2022-08-06T13:46:28.195Z,22.00
2022-08-06T13:48:58.908Z,21.90
2022-08-06T13:51:27.875Z,21.90
2022-08-06T13:53:57.123Z,22.00
2022-08-06T13:56:28.827Z,22.10
2022-08-06T13:58:59.889Z,21.00
2022-08-06T14:01:44.108Z,22.20
2022-08-06T14:04:14.250Z,22.20
2022-08-06T14:06:44.612Z,22.10
2022-08-06T14:09:19.367Z,21.80
2022-08-06T14:11:56.346Z,21.90
2022-08-06T14:14:27.511Z,21.80
2022-08-06T14:16:56.585Z,21.90
2022-08-06T14:20:08.859Z,22.00
2022-08-06T14:22:10.448Z,22.00
2022-08-06T14:24:39.435Z,22.20
2022-08-06T14:27:15.686Z,22.30
2022-08-06T14:30:29.601Z,22.20
2022-08-06T14:32:32.771Z,22.10
2022-08-06T14:35:04.360Z,22.10
2022-08-06T14:37:50.264Z,22.10
2022-08-06T14:40:49.776Z,22.10
2022-08-06T14:43:55.118Z,22.20
2022-08-06T14:46:26.242Z,22.20
2022-08-06T14:48:57.718Z,24.40
2022-08-06T14:51:37.359Z,22.10
2022-08-06T14:54:13.925Z,21.90
2022-08-06T14:56:45.469Z,21.70
2022-08-06T14:59:12.693Z,21.60
2022-08-06T15:01:40.357Z,21.50
2022-08-06T15:04:22.375Z,21.40
2022-08-06T15:06:54.072Z,21.70
2022-08-06T15:10:04.383Z,21.80
2022-08-06T15:12:08.456Z,21.90
2022-08-06T15:14:38.620Z,21.90
2022-08-06T15:17:49.263Z,21.90
2022-08-06T15:19:57.362Z,21.90
2022-08-06T15:22:31.317Z,22.00
2022-08-06T15:25:17.480Z,22.10
2022-08-06T15:27:50.139Z,22.00
2022-08-06T15:30:18.586Z,22.00
2022-08-06T15:32:56.331Z,22.00
2022-08-06T15:35:38.316Z,21.90
2022-08-06T15:38:10.989Z,22.20
2022-08-06T15:40:39.479Z,22.30
2022-08-06T15:43:09.567Z,22.30
2022-08-06T15:45:51.172Z,22.40
2022-08-06T15:48:28.282Z,22.40
2022-08-06T15:51:27.939Z,22.50
2022-08-06T15:53:54.505Z,22.50
2022-08-06T15:56:38.659Z,22.60
2022-08-06T15:59:11.965Z,22.70
2022-08-06T16:01:52.720Z,22.60
2022-08-06T16:04:26.284Z,22.50
2022-08-06T16:06:54.859Z,22.40
2022-08-06T16:09:27.200Z,22.30
2022-08-06T16:11:56.843Z,22.40
2022-08-06T16:14:33.195Z,22.40
2022-08-06T16:17:06.182Z,22.40
2022-08-06T16:19:34.009Z,22.30
2022-08-06T16:22:17.588Z,22.30
2022-08-06T16:24:44.597Z,22.20
2022-08-06T16:27:11.686Z,22.10
2022-08-06T16:29:41.748Z,22.20
2022-08-06T16:32:09.747Z,22.10
2022-08-06T16:34:37.086Z,22.00
2022-08-06T16:37:24.234Z,22.00
2022-08-06T16:39:57.322Z,21.90
2022-08-06T16:42:29.733Z,21.90
2022-08-06T16:45:01.205Z,21.80
2022-08-06T16:48:21.289Z,21.80
2022-08-06T16:50:25.871Z,21.70
2022-08-06T16:55:42.585Z,21.60
2022-08-06T16:58:16.849Z,21.60
2022-08-06T17:01:00.021Z,21.50
2022-08-06T17:03:46.246Z,21.40
2022-08-06T17:06:17.681Z,21.40
2022-08-06T17:11:45.382Z,21.30
2022-08-06T17:14:17.028Z,21.30
2022-08-06T17:16:47.456Z,21.30
2022-08-06T17:19:17.459Z,21.30
2022-08-06T17:21:58.054Z,21.20
2022-08-06T17:27:17.804Z,21.10
2022-08-06T17:32:54.531Z,21.10
2022-08-06T17:35:22.135Z,21.00
2022-08-06T17:37:51.326Z,21.00
2022-08-06T17:40:32.463Z,21.00
2022-08-06T17:43:12.659Z,21.00
2022-08-06T17:45:52.700Z,21.00
2022-08-06T17:48:31.254Z,20.90
2022-08-06T17:51:09.593Z,21.00
2022-08-06T17:53:53.659Z,20.90
2022-08-06T17:56:29.851Z,20.80
2022-08-06T17:59:11.077Z,20.70
2022-08-06T18:01:45.713Z,20.70
2022-08-06T18:04:22.207Z,20.70
2022-08-06T18:06:58.834Z,20.70
2022-08-06T18:10:08.694Z,20.60
2022-08-06T18:12:18.488Z,20.60
2022-08-06T18:14:52.162Z,20.50
2022-08-06T18:17:19.350Z,20.50
2022-08-06T18:19:46.217Z,20.50
2022-08-06T18:22:23.117Z,20.40
2022-08-06T18:24:53.504Z,20.40
2022-08-06T18:27:54.199Z,20.40
2022-08-06T18:30:11.678Z,21.50
2022-08-06T18:32:58.243Z,20.30
2022-08-06T18:35:27.287Z,20.20
2022-08-06T18:38:05.922Z,20.20
2022-08-06T18:40:38.681Z,20.10
2022-08-06T18:43:08.719Z,20.00
2022-08-06T18:45:36.868Z,20.00
2022-08-06T18:48:07.117Z,19.90
2022-08-06T18:50:34.848Z,19.90
2022-08-06T18:53:02.919Z,19.80
2022-08-06T18:55:54.023Z,19.80
2022-08-06T18:58:18.290Z,19.70
2022-08-06T19:00:52.675Z,19.60
2022-08-06T19:03:19.842Z,19.50
2022-08-06T19:06:04.587Z,19.40
2022-08-06T19:08:31.274Z,19.30
2022-08-06T19:11:00.817Z,19.10
2022-08-06T19:13:57.847Z,19.10
2022-08-06T19:16:19.278Z,19.00
2022-08-06T19:18:51.296Z,18.90
2022-08-06T19:21:25.049Z,18.80
2022-08-06T19:24:02.102Z,18.90
2022-08-06T19:26:34.290Z,18.90
2022-08-06T19:29:01.959Z,18.80
2022-08-06T19:31:42.323Z,18.70
2022-08-06T19:34:15.608Z,18.70
2022-08-06T19:36:49.433Z,18.70
2022-08-06T19:39:52.904Z,18.70
2022-08-06T19:42:06.517Z,18.60
2022-08-06T19:45:04.661Z,18.60
2022-08-06T19:47:29.272Z,18.50
2022-08-06T19:49:55.917Z,20.20
2022-08-06T19:52:27.140Z,18.50
2022-08-06T19:54:56.658Z,18.40
2022-08-06T19:57:26.589Z,18.40
2022-08-06T20:00:52.440Z,18.40
2022-08-06T20:02:50.869Z,16.40
2022-08-06T20:05:21.746Z,18.30
2022-08-06T20:08:10.581Z,18.30
2022-08-06T20:10:39.027Z,18.30
2022-08-06T20:13:09.055Z,18.30
2022-08-06T20:15:41.505Z,18.20
2022-08-06T20:18:13.533Z,18.30
2022-08-06T20:20:41.698Z,18.30
2022-08-06T20:23:12.798Z,18.30
2022-08-06T20:26:08.274Z,18.20
2022-08-06T20:29:09.298Z,18.20
2022-08-06T20:31:21.881Z,18.10
2022-08-06T20:33:59.245Z,18.10
2022-08-06T20:36:28.362Z,18.10
2022-08-06T20:38:55.408Z,18.10
2022-08-06T20:41:56.579Z,18.00
2022-08-06T20:44:08.987Z,17.90
2022-08-06T20:49:29.463Z,17.70
2022-08-06T20:52:17.683Z,17.60
2022-08-06T20:54:51.334Z,17.50
2022-08-06T20:57:26.911Z,17.30
2022-08-06T20:59:57.756Z,17.30
2022-08-06T21:02:25.702Z,17.30
2022-08-06T21:05:14.848Z,17.30
2022-08-06T21:07:56.634Z,17.20
2022-08-06T21:10:25.302Z,17.20
2022-08-06T21:13:01.121Z,17.20
2022-08-06T21:15:54.764Z,17.30
2022-08-06T21:18:21.248Z,17.30
2022-08-06T21:20:50.679Z,17.30
2022-08-06T21:23:41.892Z,17.30
2022-08-06T21:26:07.971Z,17.30
2022-08-06T21:28:38.303Z,17.30
2022-08-06T21:31:06.379Z,17.30
2022-08-06T21:33:34.775Z,17.30
2022-08-06T21:36:14.936Z,17.30
2022-08-06T21:38:45.979Z,17.30
2022-08-06T21:41:54.293Z,17.20
2022-08-06T21:44:15.196Z,17.20
2022-08-06T21:46:44.699Z,17.10
2022-08-06T21:49:21.561Z,17.10
2022-08-06T21:52:04.742Z,17.10
2022-08-06T21:54:31.711Z,17.00
2022-08-06T21:57:02.279Z,17.10
2022-08-06T21:59:46.475Z,16.90
2022-08-06T22:02:21.533Z,16.90
2022-08-06T22:05:00.731Z,16.80
2022-08-06T22:08:06.736Z,16.50
2022-08-06T22:10:31.935Z,16.90
2022-08-06T22:13:12.328Z,16.70
2022-08-06T22:15:47.096Z,16.60
2022-08-06T22:18:19.011Z,16.60
2022-08-06T22:20:55.495Z,16.60
2022-08-06T22:23:24.173Z,16.60
2022-08-06T22:25:51.640Z,16.60
2022-08-06T22:28:23.826Z,16.70
2022-08-06T22:31:01.662Z,16.50
2022-08-06T22:33:45.832Z,16.50
2022-08-06T22:36:34.530Z,16.40
2022-08-06T22:39:05.806Z,16.30
2022-08-06T22:41:42.748Z,16.20
2022-08-06T22:44:30.838Z,16.10
2022-08-06T22:46:57.830Z,16.10
2022-08-06T22:49:24.954Z,16.10
2022-08-06T22:51:51.824Z,16.10
2022-08-06T22:54:29.818Z,16.10
2022-08-06T22:57:05.907Z,15.90
2022-08-06T23:00:11.475Z,15.90
2022-08-06T23:02:20.378Z,15.80
2022-08-06T23:04:49.341Z,15.80
2022-08-06T23:07:21.471Z,15.70
2022-08-06T23:09:53.887Z,15.70
2022-08-06T23:12:25.426Z,15.70
2022-08-06T23:14:59.020Z,15.60
2022-08-06T23:17:25.978Z,15.30
2022-08-06T23:20:11.645Z,15.60
2022-08-06T23:22:38.874Z,15.70
2022-08-06T23:26:00.269Z,15.60
2022-08-06T23:27:55.575Z,15.60
2022-08-06T23:30:25.098Z,15.70
2022-08-06T23:32:53.232Z,15.60
2022-08-06T23:35:35.165Z,15.60
2022-08-06T23:38:05.568Z,15.60
2022-08-06T23:40:52.038Z,15.60
2022-08-06T23:43:19.593Z,15.50
2022-08-06T23:45:47.427Z,15.50
2022-08-06T23:48:16.881Z,15.40
2022-08-06T23:50:53.308Z,15.30
2022-08-06T23:54:05.438Z,15.30
2022-08-06T23:56:11.219Z,15.30
2022-08-06T23:58:48.495Z,15.30
